createdAt,value
2018-09-09T00:00:09.850Z,98273.25
2018-09-09T00:02:39.170Z,98266.17
2018-09-09T00:05:08.556Z,98272.21
2018-09-09T00:07:37.880Z,98272.11
2018-09-09T00:10:08.083Z,98275.97
2018-09-09T00:12:37.435Z,98275.23
2018-09-09T00:15:06.838Z,98278.41
2018-09-09T00:17:36.182Z,98276.13
2018-09-09T00:20:05.620Z,98276.13
2018-09-09T00:22:34.958Z,98276.98
2018-09-09T00:25:04.390Z,98273.03
2018-09-09T00:27:33.950Z,98269.78
2018-09-09T00:30:03.341Z,98273.83
2018-09-09T00:32:32.707Z,98276.45
2018-09-09T00:35:02.134Z,98270.94
2018-09-09T00:37:31.478Z,98275.58
2018-09-09T00:40:00.832Z,98274.24
2018-09-09T00:42:30.114Z,98269.67
2018-09-09T00:44:59.421Z,98272.92
2018-09-09T00:47:28.723Z,98273.22
2018-09-09T00:50:03.268Z,98270.11
2018-09-09T00:52:37.725Z,98271.86
2018-09-09T00:55:07.278Z,98274.30
2018-09-09T00:57:36.573Z,98270.23
2018-09-09T01:00:06.162Z,98277.81
2018-09-09T01:02:35.494Z,98279.06
2018-09-09T01:05:04.779Z,98282.28
2018-09-09T01:07:34.091Z,98280.81
2018-09-09T01:10:03.416Z,98275.59
2018-09-09T01:12:32.737Z,98284.73
2018-09-09T01:15:03.004Z,98282.73
2018-09-09T01:17:32.323Z,98285.43
2018-09-09T01:20:01.630Z,98287.13
2018-09-09T01:22:30.909Z,98288.25
2018-09-09T01:25:00.225Z,98275.92
2018-09-09T01:27:29.506Z,98278.51
2018-09-09T01:29:58.798Z,98275.30
2018-09-09T01:32:28.108Z,98278.59
2018-09-09T01:34:57.446Z,98274.66
2018-09-09T01:37:26.819Z,98272.27
2018-09-09T01:39:56.161Z,98275.48
2018-09-09T01:42:25.567Z,98284.17
2018-09-09T01:44:54.863Z,98283.77
2018-09-09T01:47:24.492Z,98290.20
2018-09-09T01:49:53.801Z,98283.61
2018-09-09T01:52:23.199Z,98283.05
2018-09-09T01:54:52.584Z,98293.33
2018-09-09T01:57:22.012Z,98291.11
2018-09-09T01:59:51.371Z,98292.42
2018-09-09T02:02:20.689Z,98288.38
2018-09-09T02:04:50.061Z,98288.75
2018-09-09T02:07:19.547Z,98289.75
2018-09-09T02:09:48.874Z,98292.19
2018-09-09T02:12:18.550Z,98291.38
2018-09-09T02:14:47.943Z,98282.61
2018-09-09T02:17:17.280Z,98282.09
2018-09-09T02:19:46.634Z,98283.02
2018-09-09T02:22:15.969Z,98285.39
2018-09-09T02:24:45.326Z,98281.39
2018-09-09T02:27:14.826Z,98277.06
2018-09-09T02:29:44.276Z,98273.98
2018-09-09T02:32:13.749Z,98280.27
2018-09-09T02:34:43.142Z,98282.66
2018-09-09T02:37:12.593Z,98282.83
2018-09-09T02:39:42.019Z,98284.00
2018-09-09T02:42:11.334Z,98291.16
2018-09-09T02:44:40.786Z,98292.06
2018-09-09T02:47:10.189Z,98298.16
2018-09-09T02:49:39.627Z,98300.52
2018-09-09T02:52:09.000Z,98291.51
2018-09-09T02:54:38.362Z,98300.41
2018-09-09T02:57:07.702Z,98300.60
2018-09-09T02:59:37.027Z,98304.42
2018-09-09T03:02:06.360Z,98299.45
2018-09-09T03:04:35.744Z,98309.28
2018-09-09T03:07:05.071Z,98307.48
2018-09-09T03:09:34.441Z,98300.48
2018-09-09T03:12:03.826Z,98294.22
2018-09-09T03:14:33.200Z,98290.75
2018-09-09T03:17:02.579Z,98290.62
2018-09-09T03:19:31.978Z,98289.25
2018-09-09T03:22:01.462Z,98296.63
2018-09-09T03:24:30.814Z,98283.64
2018-09-09T03:27:00.154Z,98282.31
2018-09-09T03:29:29.507Z,98279.13
2018-09-09T03:31:58.853Z,98276.85
2018-09-09T03:34:28.307Z,98271.23
2018-09-09T03:36:57.681Z,98267.63
2018-09-09T03:39:27.001Z,98276.20
2018-09-09T03:41:56.342Z,98276.20
2018-09-09T03:44:25.754Z,98279.09
2018-09-09T03:46:55.047Z,98280.24
2018-09-09T03:49:24.351Z,98278.57
2018-09-09T03:51:53.698Z,98278.92
2018-09-09T03:54:23.029Z,98282.21
2018-09-09T03:56:52.411Z,98278.95
2018-09-09T03:59:21.702Z,98279.04
2018-09-09T04:01:51.008Z,98280.88
2018-09-09T04:04:20.291Z,98285.04
2018-09-09T04:06:49.641Z,98286.23
2018-09-09T04:09:19.982Z,98289.93
2018-09-09T04:11:49.290Z,98291.59
2018-09-09T04:14:18.590Z,98294.25
2018-09-09T04:16:47.958Z,98288.58
2018-09-09T04:19:17.237Z,98294.41
2018-09-09T04:21:52.681Z,98290.45
2018-09-09T04:24:23.395Z,98296.67
2018-09-09T04:26:52.766Z,98295.55
2018-09-09T04:29:22.178Z,98305.97
2018-09-09T04:31:51.528Z,98312.16
2018-09-09T04:34:20.836Z,98307.92
2018-09-09T04:36:50.311Z,98311.13
2018-09-09T04:39:19.656Z,98312.81
2018-09-09T04:41:48.749Z,98313.89
2018-09-09T04:44:18.114Z,98315.98
2018-09-09T04:46:47.483Z,98314.73
2018-09-09T04:49:16.815Z,98318.84
2018-09-09T04:51:46.172Z,98310.70
2018-09-09T04:54:15.502Z,98313.61
2018-09-09T04:56:44.940Z,98315.85
2018-09-09T04:59:14.267Z,98319.19
2018-09-09T05:01:43.666Z,98315.08
2018-09-09T05:04:13.153Z,98320.19
2018-09-09T05:06:42.535Z,98317.35
2018-09-09T05:09:11.937Z,98326.50
2018-09-09T05:11:41.259Z,98328.12
2018-09-09T05:14:10.581Z,98329.58
2018-09-09T05:16:39.875Z,98327.48
2018-09-09T05:19:09.339Z,98328.48
2018-09-09T05:21:38.787Z,98327.77
2018-09-09T05:24:08.146Z,98319.55
2018-09-09T05:26:37.517Z,98340.28
2018-09-09T05:29:06.951Z,98338.98
2018-09-09T05:31:36.682Z,98342.33
2018-09-09T05:34:06.143Z,98346.26
2018-09-09T05:36:35.511Z,98342.38
2018-09-09T05:39:08.503Z,98351.56
2018-09-09T05:41:37.949Z,98349.63
2018-09-09T05:44:07.510Z,98358.81
2018-09-09T05:46:36.934Z,98351.03
2018-09-09T05:49:06.443Z,98356.66
2018-09-09T05:51:35.822Z,98354.89
2018-09-09T05:54:05.243Z,98357.51
2018-09-09T05:56:34.628Z,98351.28
2018-09-09T05:59:04.194Z,98352.63
2018-09-09T06:01:33.628Z,98351.72
2018-09-09T06:04:03.075Z,98360.70
2018-09-09T06:06:32.446Z,98364.16
2018-09-09T06:09:01.781Z,98357.63
2018-09-09T06:11:31.140Z,98363.45
2018-09-09T06:14:00.506Z,98368.74
2018-09-09T06:16:29.845Z,98366.26
2018-09-09T06:18:59.178Z,98359.06
2018-09-09T06:21:28.586Z,98367.64
2018-09-09T06:23:57.936Z,98367.58
2018-09-09T06:26:27.331Z,98366.09
2018-09-09T06:28:56.735Z,98371.90
2018-09-09T06:31:26.138Z,98378.78
2018-09-09T06:33:55.557Z,98380.91
2018-09-09T06:36:24.853Z,98382.07
2018-09-09T06:38:54.274Z,98372.91
2018-09-09T06:41:23.536Z,98375.66
2018-09-09T06:43:53.774Z,98376.45
2018-09-09T06:46:23.126Z,98372.67
2018-09-09T06:48:52.667Z,98384.16
2018-09-09T06:51:22.182Z,98366.41
2018-09-09T06:53:51.538Z,98363.59
2018-09-09T06:56:20.854Z,98362.53
2018-09-09T06:58:50.665Z,98365.89
2018-09-09T07:01:20.018Z,98365.12
2018-09-09T07:03:49.427Z,98363.34
2018-09-09T07:06:18.822Z,98356.52
2018-09-09T07:08:48.122Z,98357.08
2018-09-09T07:11:17.424Z,98361.38
2018-09-09T07:13:46.857Z,98365.75
2018-09-09T07:16:16.185Z,98371.58
2018-09-09T07:18:45.535Z,98380.92
2018-09-09T07:21:14.886Z,98374.00
2018-09-09T07:23:46.385Z,98374.07
2018-09-09T07:26:15.762Z,98375.17
2018-09-09T07:28:45.106Z,98380.03
2018-09-09T07:31:14.525Z,98380.58
2018-09-09T07:33:43.883Z,98381.94
2018-09-09T07:36:13.232Z,98380.05
2018-09-09T07:38:42.800Z,98375.43
2018-09-09T07:41:12.211Z,98377.01
2018-09-09T07:43:41.709Z,98382.61
2018-09-09T07:46:11.079Z,98388.20
2018-09-09T07:48:41.465Z,98389.48
2018-09-09T07:51:10.851Z,98386.86
2018-09-09T07:53:40.206Z,98387.45
2018-09-09T07:56:09.588Z,98380.83
2018-09-09T07:58:38.929Z,98384.27
2018-09-09T08:01:08.377Z,98385.93
2018-09-09T08:03:37.744Z,98383.10
2018-09-09T08:06:07.120Z,98380.84
2018-09-09T08:08:36.453Z,98385.59
2018-09-09T08:11:05.865Z,98384.44
2018-09-09T08:13:35.291Z,98384.55
2018-09-09T08:16:04.867Z,98387.67
2018-09-09T08:18:34.453Z,98393.11
2018-09-09T08:21:03.922Z,98396.21
2018-09-09T08:23:33.454Z,98398.03
2018-09-09T08:26:02.853Z,98404.66
2018-09-09T08:28:32.318Z,98408.66
2018-09-09T08:31:01.700Z,98412.19
2018-09-09T08:33:31.165Z,98414.45
2018-09-09T08:36:00.979Z,98418.99
2018-09-09T08:38:30.448Z,98413.89
2018-09-09T08:41:00.285Z,98417.73
2018-09-09T08:43:29.741Z,98418.42
2018-09-09T08:45:59.175Z,98416.92
2018-09-09T08:48:28.597Z,98413.06
2018-09-09T08:50:57.888Z,98407.83
2018-09-09T08:53:28.622Z,98414.80
2018-09-09T08:55:58.079Z,98408.47
2018-09-09T08:58:28.840Z,98411.02
2018-09-09T09:00:58.430Z,98402.13
2018-09-09T09:03:27.877Z,98400.95
2018-09-09T09:05:57.450Z,98402.23
2018-09-09T09:08:26.817Z,98404.41
2018-09-09T09:10:56.190Z,98404.12
2018-09-09T09:13:25.557Z,98398.33
2018-09-09T09:15:55.355Z,98396.58
2018-09-09T09:18:24.980Z,98396.98
2018-09-09T09:20:54.480Z,98396.92
2018-09-09T09:23:23.998Z,98394.37
2018-09-09T09:25:54.493Z,98385.15
2018-09-09T09:28:25.215Z,98391.64
2018-09-09T09:30:54.852Z,98395.09
2018-09-09T09:33:24.324Z,98393.58
2018-09-09T09:35:54.655Z,98389.80
2018-09-09T09:38:24.251Z,98392.00
2018-09-09T09:40:53.877Z,98389.84
2018-09-09T09:43:23.321Z,98392.63
2018-09-09T09:45:53.463Z,98389.86
2018-09-09T09:48:22.911Z,98386.33
2018-09-09T09:50:52.252Z,98380.82
2018-09-09T09:53:21.821Z,98376.75
2018-09-09T09:55:51.308Z,98384.73
2018-09-09T09:58:20.741Z,98380.78
2018-09-09T10:00:55.335Z,98374.46
2018-09-09T10:03:24.733Z,98382.69
2018-09-09T10:05:54.171Z,98378.88
2018-09-09T10:08:23.565Z,98384.30
2018-09-09T10:10:52.945Z,98379.06
2018-09-09T10:13:22.282Z,98380.80
2018-09-09T10:15:51.645Z,98377.23
2018-09-09T10:18:21.017Z,98379.45
2018-09-09T10:20:50.359Z,98378.25
2018-09-09T10:23:19.803Z,98372.30
2018-09-09T10:25:49.091Z,98370.75
2018-09-09T10:28:18.558Z,98371.39
2018-09-09T10:30:47.957Z,98369.44
2018-09-09T10:33:17.289Z,98367.49
2018-09-09T10:35:46.778Z,98368.55
2018-09-09T10:38:16.166Z,98362.05
2018-09-09T10:40:45.564Z,98355.70
2018-09-09T10:43:14.894Z,98364.30
2018-09-09T10:45:44.233Z,98358.66
2018-09-09T10:48:13.495Z,98361.41
2018-09-09T10:50:42.822Z,98363.98
2018-09-09T10:53:12.266Z,98354.51
2018-09-09T10:55:41.577Z,98353.13
2018-09-09T10:58:10.874Z,98352.92
2018-09-09T11:00:40.993Z,98350.43
2018-09-09T11:03:10.330Z,98358.85
2018-09-09T11:05:39.649Z,98363.89
2018-09-09T11:08:12.999Z,98360.16
2018-09-09T11:10:42.339Z,98356.28
2018-09-09T11:13:11.617Z,98352.02
2018-09-09T11:15:41.051Z,98349.08
2018-09-09T11:18:10.777Z,98340.34
2018-09-09T11:20:40.124Z,98343.33
2018-09-09T11:23:09.447Z,98345.09
2018-09-09T11:25:38.724Z,98344.37
2018-09-09T11:28:08.040Z,98346.85
2018-09-09T11:30:37.334Z,98337.14
2018-09-09T11:33:06.879Z,98336.04
2018-09-09T11:35:36.218Z,98334.16
2018-09-09T11:38:05.558Z,98334.77
2018-09-09T11:40:34.906Z,98344.14
2018-09-09T11:43:04.178Z,98336.12
2018-09-09T11:45:33.497Z,98329.27
2018-09-09T11:48:02.802Z,98337.04
2018-09-09T11:50:32.179Z,98335.28
2018-09-09T11:53:01.959Z,98337.55
2018-09-09T11:55:31.247Z,98333.31
2018-09-09T11:58:01.031Z,98332.66
2018-09-09T12:00:30.975Z,98335.63
2018-09-09T12:03:00.923Z,98327.14
2018-09-09T12:05:30.502Z,98334.34
2018-09-09T12:08:00.050Z,98331.79
2018-09-09T12:10:29.446Z,98330.51
2018-09-09T12:12:58.894Z,98329.20
2018-09-09T12:15:28.243Z,98321.34
2018-09-09T12:17:57.600Z,98323.33
2018-09-09T12:20:27.067Z,98333.77
2018-09-09T12:22:56.500Z,98330.61
2018-09-09T12:25:28.637Z,98330.08
2018-09-09T12:27:57.978Z,98327.52
2018-09-09T12:30:27.280Z,98328.22
2018-09-09T12:32:56.642Z,98320.09
2018-09-09T12:35:25.958Z,98319.70
2018-09-09T12:37:55.328Z,98318.80
2018-09-09T12:40:24.619Z,98315.97
2018-09-09T12:42:59.081Z,98314.80
2018-09-09T12:45:33.846Z,98310.14
2018-09-09T12:48:08.274Z,98312.13
2018-09-09T12:50:37.619Z,98306.61
2018-09-09T12:53:06.990Z,98311.84
2018-09-09T12:55:36.351Z,98307.67
2018-09-09T12:58:05.737Z,98312.02
2018-09-09T13:00:35.124Z,98311.75
2018-09-09T13:03:04.569Z,98308.17
2018-09-09T13:05:34.000Z,98307.00
2018-09-09T13:08:03.373Z,98307.26
2018-09-09T13:10:32.899Z,98309.12
2018-09-09T13:13:07.509Z,98304.58
2018-09-09T13:15:37.131Z,98307.08
2018-09-09T13:18:06.765Z,98309.99
2018-09-09T13:20:36.118Z,98306.19
2018-09-09T13:23:05.447Z,98302.11
2018-09-09T13:25:34.722Z,98303.15
2018-09-09T13:28:04.252Z,98305.45
2018-09-09T13:30:33.684Z,98307.79
2018-09-09T13:33:03.043Z,98298.06
2018-09-09T13:35:32.351Z,98301.09
2018-09-09T13:38:01.693Z,98303.55
2018-09-09T13:40:31.058Z,98305.83
2018-09-09T13:43:00.379Z,98306.23
2018-09-09T13:45:29.850Z,98298.94
2018-09-09T13:47:59.365Z,98298.63
2018-09-09T13:50:28.729Z,98294.25
2018-09-09T13:52:58.066Z,98292.81
2018-09-09T13:55:27.368Z,98292.17
2018-09-09T13:57:56.790Z,98293.79
2018-09-09T14:00:26.082Z,98288.66
2018-09-09T14:02:55.448Z,98285.41
2018-09-09T14:05:24.915Z,98283.69
2018-09-09T14:07:54.256Z,98280.27
2018-09-09T14:10:23.590Z,98286.97
2018-09-09T14:12:52.988Z,98278.42
2018-09-09T14:15:22.416Z,98273.16
2018-09-09T14:17:51.798Z,98277.19
2018-09-09T14:20:21.239Z,98273.78
2018-09-09T14:22:50.689Z,98277.48
2018-09-09T14:25:20.177Z,98272.72
2018-09-09T14:27:49.915Z,98267.75
2018-09-09T14:30:19.350Z,98272.28
2018-09-09T14:32:48.795Z,98272.53
2018-09-09T14:35:18.269Z,98265.89
2018-09-09T14:37:47.508Z,98268.38
2018-09-09T14:40:16.834Z,98269.13
2018-09-09T14:42:46.203Z,98265.66
2018-09-09T14:45:15.727Z,98261.42
2018-09-09T14:47:45.113Z,98267.07
2018-09-09T14:50:14.439Z,98270.11
2018-09-09T14:52:43.805Z,98271.03
2018-09-09T14:55:13.177Z,98272.98
2018-09-09T14:57:42.533Z,98270.19
2018-09-09T15:00:14.049Z,98267.50
2018-09-09T15:02:43.852Z,98271.84
2018-09-09T15:05:13.219Z,98266.28
2018-09-09T15:07:42.476Z,98269.80
2018-09-09T15:10:11.843Z,98260.83
2018-09-09T15:12:41.287Z,98261.63
2018-09-09T15:15:10.784Z,98256.81
2018-09-09T15:17:40.143Z,98255.43
2018-09-09T15:20:09.535Z,98254.45
2018-09-09T15:22:38.929Z,98244.39
2018-09-09T15:25:08.210Z,98258.08
2018-09-09T15:27:37.512Z,98252.03
2018-09-09T15:30:06.871Z,98250.16
2018-09-09T15:32:36.152Z,98249.30
2018-09-09T15:35:05.643Z,98249.87
2018-09-09T15:37:35.154Z,98249.48
2018-09-09T15:40:04.494Z,98244.78
2018-09-09T15:42:33.792Z,98249.49
2018-09-09T15:45:03.135Z,98251.15
2018-09-09T15:47:32.481Z,98247.63
2018-09-09T15:50:01.869Z,98246.26
2018-09-09T15:52:31.358Z,98242.91
2018-09-09T15:55:02.437Z,98241.41
2018-09-09T15:57:32.108Z,98247.64
2018-09-09T16:00:01.653Z,98240.80
2018-09-09T16:02:31.501Z,98226.52
2018-09-09T16:05:05.886Z,98249.86
2018-09-09T16:07:35.556Z,98245.61
2018-09-09T16:10:06.038Z,98251.78
2018-09-09T16:12:35.644Z,98247.23
2018-09-09T16:15:06.691Z,98248.08
2018-09-09T16:17:36.106Z,98257.20
2018-09-09T16:20:06.933Z,98259.20
2018-09-09T16:22:36.325Z,98251.03
2018-09-09T16:25:05.941Z,98258.98
2018-09-09T16:27:35.530Z,98251.96
2018-09-09T16:30:05.718Z,98254.69
2018-09-09T16:32:35.178Z,98259.73
2018-09-09T16:35:04.630Z,98264.65
2018-09-09T16:37:34.149Z,98262.09
2018-09-09T16:40:03.714Z,98262.13
2018-09-09T16:42:33.885Z,98263.99
2018-09-09T16:45:03.618Z,98260.30
2018-09-09T16:47:33.360Z,98263.88
2018-09-09T16:50:02.825Z,98262.62
2018-09-09T16:52:32.470Z,98266.79
2018-09-09T16:55:01.989Z,98258.30
2018-09-09T16:57:31.882Z,98264.53
2018-09-09T17:00:03.148Z,98260.63
2018-09-09T17:02:32.827Z,98261.58
2018-09-09T17:05:02.504Z,98260.45
2018-09-09T17:07:32.013Z,98259.51
2018-09-09T17:10:01.725Z,98261.59
2018-09-09T17:12:31.413Z,98254.67
2018-09-09T17:15:00.957Z,98259.31
2018-09-09T17:17:35.117Z,98255.98
2018-09-09T17:20:04.745Z,98258.72
2018-09-09T17:22:34.436Z,98256.79
2018-09-09T17:25:03.961Z,98256.56
2018-09-09T17:27:33.480Z,98262.66
2018-09-09T17:30:03.144Z,98263.41
2018-09-09T17:32:32.646Z,98264.61
2018-09-09T17:35:03.435Z,98269.93
2018-09-09T17:37:32.979Z,98271.94
2018-09-09T17:40:02.747Z,98276.06
2018-09-09T17:42:32.294Z,98277.27
2018-09-09T17:45:02.225Z,98273.30
2018-09-09T17:47:31.730Z,98276.08
2018-09-09T17:50:01.282Z,98274.41
2018-09-09T17:52:31.399Z,98277.66
2018-09-09T17:55:01.266Z,98284.04
2018-09-09T17:57:30.758Z,98282.38
2018-09-09T18:00:00.321Z,98278.69
2018-09-09T18:02:29.944Z,98282.97
2018-09-09T18:05:00.190Z,98274.02
2018-09-09T18:07:30.151Z,98283.78
2018-09-09T18:10:00.411Z,98285.20
2018-09-09T18:12:30.202Z,98284.14
2018-09-09T18:14:59.727Z,98292.46
2018-09-09T18:17:29.247Z,98300.80
2018-09-09T18:19:58.743Z,98294.22
2018-09-09T18:22:28.350Z,98299.05
2018-09-09T18:24:58.327Z,98294.31
2018-09-09T18:27:27.950Z,98298.94
2018-09-09T18:29:57.452Z,98299.88
2018-09-09T18:32:27.116Z,98297.27
2018-09-09T18:34:56.509Z,98305.70
2018-09-09T18:37:26.140Z,98302.01
2018-09-09T18:39:55.902Z,98303.23
2018-09-09T18:42:25.862Z,98311.14
2018-09-09T18:44:55.511Z,98311.44
2018-09-09T18:47:24.948Z,98312.90
2018-09-09T18:49:54.412Z,98310.82
2018-09-09T18:52:23.999Z,98314.63
2018-09-09T18:54:53.609Z,98311.98
2018-09-09T18:57:23.099Z,98318.46
2018-09-09T18:59:52.627Z,98326.55
2018-09-09T19:02:22.262Z,98326.04
2018-09-09T19:04:52.268Z,98323.35
2018-09-09T19:07:21.883Z,98323.67
2018-09-09T19:09:53.610Z,98323.45
2018-09-09T19:12:23.264Z,98322.41
2018-09-09T19:14:53.650Z,98328.36
2018-09-09T19:17:23.205Z,98331.61
2018-09-09T19:19:52.852Z,98335.13
2018-09-09T19:22:22.335Z,98338.11
2018-09-09T19:24:51.945Z,98338.34
2018-09-09T19:27:21.385Z,98338.36
2018-09-09T19:29:50.980Z,98341.05
2018-09-09T19:32:20.477Z,98340.27
2018-09-09T19:34:49.969Z,98348.59
2018-09-09T19:37:19.662Z,98326.83
2018-09-09T19:39:49.184Z,98343.21
2018-09-09T19:42:18.849Z,98338.65
2018-09-09T19:44:48.569Z,98341.06
2018-09-09T19:47:18.503Z,98342.69
2018-09-09T19:49:48.299Z,98348.06
2018-09-09T19:52:17.744Z,98345.08
2018-09-09T19:54:47.357Z,98348.05
2018-09-09T19:57:17.036Z,98351.79
2018-09-09T19:59:46.533Z,98348.03
2018-09-09T20:02:16.021Z,98350.43
2018-09-09T20:04:45.528Z,98349.91
2018-09-09T20:07:15.029Z,98348.80
2018-09-09T20:09:44.703Z,98357.64
2018-09-09T20:12:14.229Z,98369.16
2018-09-09T20:14:43.784Z,98357.36
2018-09-09T20:17:13.286Z,98364.84
2018-09-09T20:19:42.681Z,98368.61
2018-09-09T20:22:12.591Z,98367.02
2018-09-09T20:24:42.172Z,98367.26
2018-09-09T20:27:11.859Z,98392.75
2018-09-09T20:29:41.315Z,98368.02
2018-09-09T20:32:10.685Z,98370.70
2018-09-09T20:34:40.118Z,98368.27
2018-09-09T20:37:09.870Z,98374.36
2018-09-09T20:39:39.293Z,98373.58
2018-09-09T20:42:09.451Z,98370.33
2018-09-09T20:44:39.059Z,98375.64
2018-09-09T20:47:08.707Z,98374.05
2018-09-09T20:49:38.276Z,98383.89
2018-09-09T20:52:07.931Z,98385.20
2018-09-09T20:54:37.814Z,98381.70
2018-09-09T20:57:07.412Z,98382.76
2018-09-09T20:59:37.837Z,98386.78
2018-09-09T21:02:07.387Z,98388.84
2018-09-09T21:04:36.887Z,98385.59
2018-09-09T21:07:06.473Z,98386.20
2018-09-09T21:09:36.011Z,98385.11
2018-09-09T21:12:05.530Z,98393.91
2018-09-09T21:14:35.026Z,98389.77
2018-09-09T21:17:04.904Z,98393.54
2018-09-09T21:19:34.404Z,98391.72
2018-09-09T21:22:03.800Z,98392.06
2018-09-09T21:24:33.192Z,98395.42
2018-09-09T21:27:02.626Z,98397.58
2018-09-09T21:29:32.107Z,98394.86
2018-09-09T21:32:01.722Z,98397.30
2018-09-09T21:34:31.164Z,98397.88
2018-09-09T21:37:00.656Z,98404.00
2018-09-09T21:39:30.048Z,98401.36
2018-09-09T21:41:59.433Z,98398.69
2018-09-09T21:44:29.966Z,98394.00
2018-09-09T21:46:59.698Z,98395.27
2018-09-09T21:49:28.977Z,98399.24
2018-09-09T21:51:58.589Z,98398.65
2018-09-09T21:54:28.038Z,98392.17
2018-09-09T21:56:57.616Z,98394.62
2018-09-09T21:59:26.856Z,98391.21
2018-09-09T22:02:02.167Z,98388.48
2018-09-09T22:04:31.686Z,98385.73
2018-09-09T22:07:02.050Z,98388.56
2018-09-09T22:09:31.372Z,98398.00
2018-09-09T22:12:01.063Z,98389.98
2018-09-09T22:14:30.367Z,98397.62
2018-09-09T22:17:00.105Z,98396.97
2018-09-09T22:19:29.409Z,98393.69
2018-09-09T22:21:58.746Z,98390.27
2018-09-09T22:24:27.997Z,98387.59
2018-09-09T22:26:57.282Z,98398.14
2018-09-09T22:29:26.516Z,98395.48
2018-09-09T22:31:55.902Z,98392.52
2018-09-09T22:34:25.185Z,98395.41
2018-09-09T22:36:54.567Z,98390.28
2018-09-09T22:39:23.907Z,98394.35
2018-09-09T22:41:53.281Z,98396.28
2018-09-09T22:44:22.562Z,98396.89
2018-09-09T22:46:51.947Z,98397.03
2018-09-09T22:49:21.326Z,98393.20
2018-09-09T22:51:50.806Z,98387.69
2018-09-09T22:54:19.910Z,98388.00
2018-09-09T22:56:49.319Z,98387.19
2018-09-09T22:59:18.723Z,98389.05
2018-09-09T23:01:48.091Z,98382.44
2018-09-09T23:04:17.444Z,98381.19
2018-09-09T23:06:46.782Z,98381.05
2018-09-09T23:09:16.106Z,98385.03
2018-09-09T23:11:45.522Z,98381.77
2018-09-09T23:14:14.946Z,98383.89
2018-09-09T23:16:44.333Z,98377.77
2018-09-09T23:19:13.719Z,98383.13
2018-09-09T23:21:43.066Z,98382.77
2018-09-09T23:24:12.376Z,98385.78
2018-09-09T23:26:41.728Z,98381.33
2018-09-09T23:29:11.058Z,98379.94
2018-09-09T23:31:40.486Z,98377.45
2018-09-09T23:34:09.828Z,98376.25
2018-09-09T23:36:39.185Z,98374.07
2018-09-09T23:39:10.898Z,98377.87
2018-09-09T23:41:40.226Z,98373.49
2018-09-09T23:44:09.653Z,98368.56
2018-09-09T23:46:38.963Z,98366.10
2018-09-09T23:49:09.593Z,98369.56
2018-09-09T23:51:38.859Z,98370.87
2018-09-09T23:54:09.142Z,98370.20
2018-09-09T23:56:38.703Z,98369.91
2018-09-09T23:59:08.549Z,98366.20
